Time;durP1;ratioP1;P1;durP2;ratioP2;P2;SDS_P1;SDS_P2;PMS_P1;PMS_P2;Temp;Humidity;BMP_temperature;BMP_pressure;BME280_temperature;BME280_humidity;BME280_pressure;Samples;Min_cycle;Max_cycle;Signal;HPM_P1;HPM_P2
2022/08/08 00:01:29;;;;;;;0.00;0.00;;;;;;;;;;5102555;28;20258;-66
2022/08/08 00:04:02;;;;;;;0.00;0.00;;;;;;;;;;5107654;28;20200;-65
2022/08/08 00:06:42;;;;;;;0.00;0.00;;;;;;;;;;5102948;28;20235;-65
2022/08/08 00:09:12;;;;;;;0.00;0.00;;;;;;;;;;5105395;28;20236;-65
2022/08/08 00:11:40;;;;;;;0.00;0.00;;;;;;;;;;5104178;28;20315;-64
2022/08/08 00:14:09;;;;;;;0.00;0.00;;;;;;;;;;5105713;28;20239;-66
2022/08/08 00:16:39;;;;;;;0.10;0.10;;;;;;;;;;5103842;28;20250;-64
2022/08/08 00:19:14;;;;;;;0.00;0.00;;;;;;;;;;5106096;28;20297;-66
2022/08/08 00:21:45;;;;;;;0.10;0.10;;;;;;;;;;5104325;28;20407;-65
2022/08/08 00:24:13;;;;;;;0.00;0.00;;;;;;;;;;5105015;28;20213;-65
2022/08/08 00:26:42;;;;;;;0.00;0.00;;;;;;;;;;5104238;28;20396;-65
2022/08/08 00:29:12;;;;;;;0.00;0.00;;;;;;;;;;5105274;28;20524;-65
2022/08/08 00:31:42;;;;;;;0.00;0.00;;;;;;;;;;5104237;28;20423;-65
2022/08/08 00:37:07;;;;;;;0.00;0.00;;;;;;;;;;5107054;28;20285;-64
2022/08/08 00:39:39;;;;;;;0.08;0.08;;;;;;;;;;5102577;28;20507;-64
2022/08/08 00:42:23;;;;;;;0.00;0.00;;;;;;;;;;5107500;28;20259;-64
2022/08/08 00:45:10;;;;;;;0.05;0.05;;;;;;;;;;5080978;28;20242;-64
2022/08/08 00:47:46;;;;;;;0.10;0.10;;;;;;;;;;5065553;28;20537;-64
2022/08/08 00:50:48;;;;;;;0.10;0.10;;;;;;;;;;5073775;28;20215;-66
2022/08/08 00:53:20;;;;;;;0.10;0.10;;;;;;;;;;5102700;28;20277;-64
2022/08/08 00:56:00;;;;;;;0.00;0.00;;;;;;;;;;5082334;28;20256;-64
2022/08/08 00:58:49;;;;;;;0.00;0.00;;;;;;;;;;5099701;28;20345;-65
2022/08/08 01:01:19;;;;;;;0.00;0.00;;;;;;;;;;5090384;28;20243;-65
2022/08/08 01:04:04;;;;;;;0.00;0.00;;;;;;;;;;5097144;28;20379;-66
2022/08/08 01:06:45;;;;;;;0.00;0.00;;;;;;;;;;5098209;28;20238;-64
2022/08/08 01:09:30;;;;;;;0.10;0.10;;;;;;;;;;5091704;28;20354;-64
2022/08/08 01:12:20;;;;;;;0.00;0.00;;;;;;;;;;5105622;28;20470;-65
2022/08/08 01:15:08;;;;;;;0.00;0.00;;;;;;;;;;5085927;28;20310;-66
2022/08/08 01:17:41;;;;;;;0.00;0.00;;;;;;;;;;5074205;28;20291;-65
2022/08/08 01:20:28;;;;;;;0.00;0.00;;;;;;;;;;5077341;28;20323;-65
2022/08/08 01:23:25;;;;;;;0.00;0.00;;;;;;;;;;5067681;28;20302;-65
2022/08/08 01:26:09;;;;;;;0.00;0.00;;;;;;;;;;5080994;28;20241;-66
2022/08/08 01:28:54;;;;;;;0.10;0.10;;;;;;;;;;5092402;28;20208;-65
2022/08/08 01:31:39;;;;;;;0.10;0.10;;;;;;;;;;5071025;28;20241;-65
2022/08/08 01:34:23;;;;;;;0.00;0.00;;;;;;;;;;5089106;28;20232;-65
2022/08/08 01:37:00;;;;;;;0.00;0.00;;;;;;;;;;5074980;28;20240;-65
2022/08/08 01:39:29;;;;;;;0.00;0.00;;;;;;;;;;5086011;28;20297;-66
2022/08/08 01:41:59;;;;;;;0.10;0.10;;;;;;;;;;5089213;28;20416;-65
2022/08/08 01:44:32;;;;;;;0.00;0.00;;;;;;;;;;5086064;28;20192;-65
2022/08/08 01:47:10;;;;;;;0.00;0.00;;;;;;;;;;5089419;28;20428;-66
2022/08/08 01:49:43;;;;;;;0.08;0.08;;;;;;;;;;5085483;28;20204;-66
2022/08/08 01:52:16;;;;;;;0.00;0.00;;;;;;;;;;5090357;28;20426;-66
2022/08/08 01:54:48;;;;;;;0.00;0.00;;;;;;;;;;5085092;28;20232;-65
2022/08/08 01:57:21;;;;;;;0.00;0.00;;;;;;;;;;5090377;28;20257;-66
2022/08/08 01:59:53;;;;;;;0.10;0.10;;;;;;;;;;5084665;28;20314;-65
2022/08/08 02:02:28;;;;;;;0.00;0.00;;;;;;;;;;5090086;28;20241;-65
2022/08/08 02:04:58;;;;;;;0.00;0.00;;;;;;;;;;5085032;28;20274;-66
2022/08/08 02:07:32;;;;;;;0.08;0.08;;;;;;;;;;5090183;28;20245;-65
2022/08/08 02:10:06;;;;;;;0.00;0.00;;;;;;;;;;5085001;28;20210;-66
2022/08/08 02:12:41;;;;;;;0.00;0.00;;;;;;;;;;5093238;28;20223;-66
2022/08/08 02:15:10;;;;;;;0.00;0.00;;;;;;;;;;5094358;28;20296;-66
2022/08/08 02:17:40;;;;;;;0.10;0.10;;;;;;;;;;5119714;28;20257;-64
2022/08/08 02:20:09;;;;;;;0.00;0.00;;;;;;;;;;5100261;28;20234;-65
2022/08/08 02:22:39;;;;;;;0.00;0.00;;;;;;;;;;5119843;28;20224;-65
2022/08/08 02:25:10;;;;;;;0.00;0.00;;;;;;;;;;5101758;28;20559;-66
2022/08/08 02:27:39;;;;;;;0.00;0.00;;;;;;;;;;5119206;28;20297;-66
2022/08/08 02:30:07;;;;;;;0.10;0.10;;;;;;;;;;5100966;28;20281;-67
2022/08/08 02:32:41;;;;;;;0.03;0.03;;;;;;;;;;5119918;28;20219;-65
2022/08/08 02:35:29;;;;;;;0.00;0.00;;;;;;;;;;5094576;28;20219;-64
2022/08/08 02:38:22;;;;;;;0.10;0.10;;;;;;;;;;5117112;28;20264;-66
2022/08/08 02:41:00;;;;;;;0.00;0.00;;;;;;;;;;5099543;28;20292;-65
2022/08/08 02:43:35;;;;;;;0.08;0.08;;;;;;;;;;5113085;28;20202;-65
2022/08/08 02:46:15;;;;;;;0.00;0.00;;;;;;;;;;5101242;28;20484;-65
2022/08/08 02:48:55;;;;;;;0.10;0.10;;;;;;;;;;5110528;28;20217;-66
2022/08/08 02:51:45;;;;;;;0.00;0.00;;;;;;;;;;5104022;28;20540;-65
2022/08/08 02:54:31;;;;;;;0.00;0.00;;;;;;;;;;5106436;28;20206;-65
2022/08/08 02:57:24;;;;;;;0.00;0.00;;;;;;;;;;5108027;28;20238;-66
2022/08/08 03:00:23;;;;;;;0.10;0.10;;;;;;;;;;5103747;28;20524;-64
2022/08/08 03:03:18;;;;;;;0.00;0.00;;;;;;;;;;5117405;28;20203;-67
2022/08/08 03:06:00;;;;;;;0.00;0.00;;;;;;;;;;5098506;28;20241;-65
2022/08/08 03:08:45;;;;;;;0.00;0.00;;;;;;;;;;5112195;28;20331;-64
2022/08/08 03:11:29;;;;;;;0.00;0.00;;;;;;;;;;5102094;28;20294;-65
2022/08/08 03:14:05;;;;;;;0.10;0.10;;;;;;;;;;5108253;28;20235;-65
2022/08/08 03:16:36;;;;;;;0.00;0.00;;;;;;;;;;5104376;28;20307;-65
2022/08/08 03:19:14;;;;;;;0.00;0.00;;;;;;;;;;5107081;28;20280;-66
2022/08/08 03:21:40;;;;;;;0.10;0.10;;;;;;;;;;5105379;28;20250;-65
2022/08/08 03:24:08;;;;;;;0.08;0.08;;;;;;;;;;5106624;28;20251;-66
2022/08/08 03:26:37;;;;;;;0.00;0.00;;;;;;;;;;5104228;28;20288;-65
2022/08/08 03:29:06;;;;;;;0.00;0.00;;;;;;;;;;5107124;28;20239;-66
2022/08/08 03:34:17;;;;;;;0.00;0.00;;;;;;;;;;5105108;28;20236;-64
2022/08/08 03:36:44;;;;;;;0.05;0.05;;;;;;;;;;5105757;28;20239;-65
2022/08/08 03:39:11;;;;;;;0.10;0.10;;;;;;;;;;5106052;28;20234;-65
2022/08/08 03:41:38;;;;;;;0.10;0.10;;;;;;;;;;5104977;28;20327;-66
2022/08/08 03:44:05;;;;;;;0.10;0.10;;;;;;;;;;5106452;28;20211;-66
2022/08/08 03:46:31;;;;;;;0.10;0.10;;;;;;;;;;5103817;28;20315;-66
2022/08/08 03:48:58;;;;;;;0.00;0.00;;;;;;;;;;5107775;28;20205;-64
2022/08/08 03:51:25;;;;;;;0.10;0.10;;;;;;;;;;5102653;28;20240;-65
2022/08/08 03:53:51;;;;;;;0.00;0.00;;;;;;;;;;5108106;28;20228;-64
2022/08/08 03:56:19;;;;;;;0.08;0.08;;;;;;;;;;5101472;28;20241;-65
2022/08/08 03:58:48;;;;;;;0.05;0.05;;;;;;;;;;5108969;28;20345;-65
2022/08/08 04:01:14;;;;;;;0.00;0.00;;;;;;;;;;5101205;28;20571;-65
2022/08/08 04:03:44;;;;;;;0.00;0.00;;;;;;;;;;5109186;28;20197;-66
2022/08/08 04:06:10;;;;;;;0.03;0.03;;;;;;;;;;5100178;28;20240;-65
2022/08/08 04:08:37;;;;;;;0.00;0.00;;;;;;;;;;5110113;28;20316;-64
2022/08/08 04:11:05;;;;;;;0.03;0.03;;;;;;;;;;5099835;28;20239;-65
2022/08/08 04:13:32;;;;;;;0.10;0.10;;;;;;;;;;5110525;28;20223;-64
2022/08/08 04:15:59;;;;;;;0.00;0.00;;;;;;;;;;5099054;28;20241;-67
2022/08/08 04:18:26;;;;;;;0.10;0.10;;;;;;;;;;5111062;28;20271;-64
2022/08/08 04:20:52;;;;;;;0.00;0.00;;;;;;;;;;5098296;28;20474;-65
2022/08/08 04:23:19;;;;;;;0.00;0.00;;;;;;;;;;5111998;28;20445;-65
2022/08/08 04:25:45;;;;;;;0.10;0.10;;;;;;;;;;5097484;28;20508;-66
2022/08/08 04:28:11;;;;;;;0.00;0.00;;;;;;;;;;5112998;28;20454;-65
2022/08/08 04:30:39;;;;;;;0.10;0.10;;;;;;;;;;5096311;28;20246;-66
2022/08/08 04:33:05;;;;;;;0.00;0.00;;;;;;;;;;5113542;28;20212;-66
2022/08/08 04:35:32;;;;;;;0.00;0.00;;;;;;;;;;5095993;28;20241;-64
2022/08/08 04:37:58;;;;;;;0.10;0.10;;;;;;;;;;5114108;28;20280;-65
2022/08/08 04:40:25;;;;;;;0.00;0.00;;;;;;;;;;5094967;28;20325;-65
2022/08/08 04:42:51;;;;;;;0.00;0.00;;;;;;;;;;5115808;28;20194;-64
2022/08/08 04:45:17;;;;;;;0.10;0.10;;;;;;;;;;5093833;28;20202;-64
2022/08/08 04:47:45;;;;;;;0.10;0.10;;;;;;;;;;5116231;28;20217;-64
2022/08/08 04:50:11;;;;;;;0.10;0.10;;;;;;;;;;5093090;28;20203;-65
2022/08/08 04:52:37;;;;;;;0.00;0.00;;;;;;;;;;5117301;28;20265;-64
2022/08/08 04:55:04;;;;;;;0.00;0.00;;;;;;;;;;5102317;28;20234;-63
2022/08/08 04:57:30;;;;;;;0.00;0.00;;;;;;;;;;5090464;28;20210;-65
2022/08/08 04:59:57;;;;;;;0.00;0.00;;;;;;;;;;5102641;28;20227;-65
2022/08/08 05:02:23;;;;;;;0.00;0.00;;;;;;;;;;5107494;28;20289;-64
2022/08/08 05:04:51;;;;;;;0.00;0.00;;;;;;;;;;5102443;28;20203;-64
2022/08/08 05:07:17;;;;;;;0.10;0.10;;;;;;;;;;5107567;28;20251;-64
2022/08/08 05:09:43;;;;;;;0.00;0.00;;;;;;;;;;5102305;28;20216;-64
2022/08/08 05:12:10;;;;;;;0.00;0.00;;;;;;;;;;5107451;28;20247;-64
2022/08/08 05:14:36;;;;;;;0.08;0.08;;;;;;;;;;5102382;28;20255;-64
2022/08/08 05:17:03;;;;;;;0.10;0.10;;;;;;;;;;5106894;28;20311;-65
2022/08/08 05:19:29;;;;;;;0.10;0.10;;;;;;;;;;5102079;28;20329;-64
2022/08/08 05:21:57;;;;;;;0.00;0.00;;;;;;;;;;5105873;28;20245;-63
2022/08/08 05:24:23;;;;;;;0.08;0.08;;;;;;;;;;5103202;28;20252;-65
2022/08/08 05:26:50;;;;;;;0.05;0.05;;;;;;;;;;5105003;28;20307;-64
2022/08/08 05:29:16;;;;;;;0.10;0.10;;;;;;;;;;5104125;28;20209;-64
2022/08/08 05:31:42;;;;;;;0.00;0.00;;;;;;;;;;5104346;28;20302;-64
2022/08/08 05:34:21;;;;;;;0.10;0.10;;;;;;;;;;5104990;28;20425;-64
2022/08/08 05:36:48;;;;;;;0.10;0.10;;;;;;;;;;5104617;28;20265;-65
2022/08/08 05:39:17;;;;;;;0.10;0.10;;;;;;;;;;5104312;28;20211;-66
2022/08/08 05:41:44;;;;;;;0.00;0.00;;;;;;;;;;5104187;28;20484;-64
2022/08/08 05:44:12;;;;;;;0.00;0.00;;;;;;;;;;5104609;28;20213;-64
2022/08/08 05:46:40;;;;;;;0.05;0.05;;;;;;;;;;5103538;28;20245;-65
2022/08/08 05:49:07;;;;;;;0.00;0.00;;;;;;;;;;5106880;28;20227;-64
2022/08/08 05:51:33;;;;;;;0.10;0.10;;;;;;;;;;5106615;28;20402;-65
2022/08/08 05:54:00;;;;;;;0.10;0.10;;;;;;;;;;5109846;28;20383;-64
2022/08/08 05:56:30;;;;;;;0.10;0.10;;;;;;;;;;5105625;28;20241;-64
2022/08/08 05:58:59;;;;;;;0.00;0.00;;;;;;;;;;5109942;28;20277;-65
2022/08/08 06:01:26;;;;;;;0.10;0.10;;;;;;;;;;5105067;28;20250;-64
2022/08/08 06:03:53;;;;;;;0.00;0.00;;;;;;;;;;5111100;28;20369;-64
2022/08/08 06:06:21;;;;;;;0.00;0.00;;;;;;;;;;5104547;28;20236;-64
2022/08/08 06:08:50;;;;;;;0.10;0.10;;;;;;;;;;5110684;28;20204;-64
2022/08/08 06:11:16;;;;;;;0.00;0.00;;;;;;;;;;5103981;28;20565;-63
2022/08/08 06:13:44;;;;;;;0.00;0.00;;;;;;;;;;5111447;28;20232;-65
2022/08/08 06:16:11;;;;;;;0.05;0.05;;;;;;;;;;5103207;28;20314;-63
2022/08/08 06:18:37;;;;;;;0.00;0.00;;;;;;;;;;5111868;28;20296;-64
2022/08/08 06:21:04;;;;;;;0.00;0.00;;;;;;;;;;5102142;28;20308;-65
2022/08/08 06:23:30;;;;;;;0.00;0.00;;;;;;;;;;5112690;28;20212;-64
2022/08/08 06:26:00;;;;;;;0.10;0.10;;;;;;;;;;5101265;28;20564;-64
2022/08/08 06:28:29;;;;;;;0.00;0.00;;;;;;;;;;5113121;28;20209;-63
2022/08/08 06:30:58;;;;;;;0.10;0.10;;;;;;;;;;5100856;28;20247;-64
2022/08/08 06:33:27;;;;;;;0.10;0.10;;;;;;;;;;5113808;28;20242;-64
2022/08/08 06:35:55;;;;;;;0.00;0.00;;;;;;;;;;5100845;28;20237;-64
2022/08/08 06:38:23;;;;;;;0.10;0.10;;;;;;;;;;5114101;28;20344;-64
2022/08/08 06:40:50;;;;;;;0.00;0.00;;;;;;;;;;5100109;28;20254;-64
2022/08/08 06:43:19;;;;;;;0.00;0.00;;;;;;;;;;5115352;28;20206;-64
2022/08/08 06:45:46;;;;;;;0.10;0.10;;;;;;;;;;5100236;28;20235;-64
2022/08/08 06:48:14;;;;;;;0.00;0.00;;;;;;;;;;5114460;28;20240;-64
2022/08/08 06:50:41;;;;;;;0.03;0.03;;;;;;;;;;5098612;28;20239;-63
2022/08/08 06:53:08;;;;;;;0.00;0.00;;;;;;;;;;5115373;28;20384;-65
2022/08/08 06:55:35;;;;;;;0.00;0.00;;;;;;;;;;5097860;28;20272;-64
2022/08/08 06:58:01;;;;;;;0.00;0.00;;;;;;;;;;5115825;28;20273;-64
2022/08/08 07:00:31;;;;;;;0.00;0.00;;;;;;;;;;5095724;28;20306;-64
2022/08/08 07:03:00;;;;;;;0.00;0.00;;;;;;;;;;5116569;28;20194;-64
2022/08/08 07:05:29;;;;;;;0.00;0.00;;;;;;;;;;5095952;28;20356;-65
2022/08/08 07:08:00;;;;;;;0.00;0.00;;;;;;;;;;5117763;28;20192;-65
2022/08/08 07:10:29;;;;;;;0.10;0.10;;;;;;;;;;5096666;28;20234;-64
2022/08/08 07:13:02;;;;;;;0.00;0.00;;;;;;;;;;5116625;28;20232;-64
2022/08/08 07:15:33;;;;;;;0.08;0.08;;;;;;;;;;5096684;28;20302;-65
2022/08/08 07:18:02;;;;;;;0.00;0.00;;;;;;;;;;5115277;28;20201;-64
2022/08/08 07:20:31;;;;;;;0.00;0.00;;;;;;;;;;5096384;28;20238;-64
2022/08/08 07:23:01;;;;;;;0.00;0.00;;;;;;;;;;5116312;28;20193;-65
2022/08/08 07:25:30;;;;;;;0.00;0.00;;;;;;;;;;5096265;28;20335;-64
2022/08/08 07:28:00;;;;;;;0.00;0.00;;;;;;;;;;5116107;28;20488;-64
2022/08/08 07:30:26;;;;;;;0.05;0.05;;;;;;;;;;5096284;28;20290;-65
2022/08/08 07:32:53;;;;;;;0.00;0.00;;;;;;;;;;5116641;28;20193;-64
2022/08/08 07:35:20;;;;;;;0.00;0.00;;;;;;;;;;5095414;28;20204;-64
2022/08/08 07:37:49;;;;;;;0.00;0.00;;;;;;;;;;5117289;28;20308;-65
2022/08/08 07:40:16;;;;;;;0.00;0.00;;;;;;;;;;5094816;28;20207;-65
2022/08/08 07:42:44;;;;;;;0.10;0.10;;;;;;;;;;5117544;28;20373;-66
2022/08/08 07:45:11;;;;;;;0.00;0.00;;;;;;;;;;5094054;28;20208;-65
2022/08/08 07:47:37;;;;;;;0.00;0.00;;;;;;;;;;5118042;28;20315;-64
2022/08/08 07:50:04;;;;;;;0.00;0.00;;;;;;;;;;5103880;28;20406;-66
2022/08/08 07:52:31;;;;;;;0.00;0.00;;;;;;;;;;5091605;28;20210;-65
2022/08/08 07:55:03;;;;;;;0.10;0.10;;;;;;;;;;5103111;28;20332;-65
2022/08/08 07:57:37;;;;;;;0.00;0.00;;;;;;;;;;5091499;28;20220;-65
2022/08/08 08:00:09;;;;;;;0.05;0.05;;;;;;;;;;5103738;28;20210;-65
2022/08/08 08:02:38;;;;;;;0.10;0.10;;;;;;;;;;5091778;28;20399;-65
2022/08/08 08:05:07;;;;;;;0.00;0.00;;;;;;;;;;5101699;28;20207;-66
2022/08/08 08:07:34;;;;;;;0.00;0.00;;;;;;;;;;5118556;28;20354;-65
2022/08/08 08:10:03;;;;;;;0.00;0.00;;;;;;;;;;5103709;28;20327;-65
2022/08/08 08:12:30;;;;;;;0.00;0.00;;;;;;;;;;5108117;28;20305;-65
2022/08/08 08:15:00;;;;;;;0.00;0.00;;;;;;;;;;5103260;28;20237;-65
2022/08/08 08:17:27;;;;;;;0.00;0.00;;;;;;;;;;5108015;28;20242;-65
2022/08/08 08:19:57;;;;;;;0.00;0.00;;;;;;;;;;5102490;28;20268;-66
2022/08/08 08:22:23;;;;;;;0.00;0.00;;;;;;;;;;5108171;28;20238;-64
2022/08/08 08:24:49;;;;;;;0.00;0.00;;;;;;;;;;5103020;28;20512;-64
2022/08/08 08:27:18;;;;;;;0.00;0.00;;;;;;;;;;5108186;28;20605;-64
2022/08/08 08:29:45;;;;;;;0.00;0.00;;;;;;;;;;5103181;28;20234;-65
2022/08/08 08:32:11;;;;;;;0.00;0.00;;;;;;;;;;5107882;28;20573;-64
2022/08/08 08:34:37;;;;;;;0.03;0.03;;;;;;;;;;5103251;28;20270;-66
2022/08/08 08:37:04;;;;;;;0.00;0.00;;;;;;;;;;5107666;28;20236;-65
2022/08/08 08:39:30;;;;;;;0.00;0.00;;;;;;;;;;5102796;28;20202;-65
2022/08/08 08:41:57;;;;;;;0.00;0.00;;;;;;;;;;5106970;28;20297;-64
2022/08/08 08:44:26;;;;;;;0.00;0.00;;;;;;;;;;5103490;28;20234;-64
2022/08/08 08:46:53;;;;;;;0.00;0.00;;;;;;;;;;5106018;28;20297;-64
2022/08/08 08:49:20;;;;;;;0.00;0.00;;;;;;;;;;5104074;28;20226;-64
2022/08/08 08:51:47;;;;;;;0.00;0.00;;;;;;;;;;5105123;28;20238;-63
2022/08/08 08:54:14;;;;;;;0.00;0.00;;;;;;;;;;5104962;28;20205;-64
2022/08/08 08:56:41;;;;;;;0.00;0.00;;;;;;;;;;5104334;28;20330;-64
2022/08/08 08:59:07;;;;;;;0.00;0.00;;;;;;;;;;5105638;28;20203;-66
2022/08/08 09:01:36;;;;;;;0.00;0.00;;;;;;;;;;5103564;28;20245;-65
2022/08/08 09:04:07;;;;;;;0.00;0.00;;;;;;;;;;5106250;28;20210;-64
2022/08/08 09:06:37;;;;;;;0.00;0.00;;;;;;;;;;5103682;28;20498;-66
2022/08/08 09:09:04;;;;;;;0.05;0.05;;;;;;;;;;5106113;28;20234;-64
2022/08/08 09:11:34;;;;;;;0.00;0.00;;;;;;;;;;5103170;28;20238;-66
2022/08/08 09:14:00;;;;;;;0.00;0.00;;;;;;;;;;5106334;28;20264;-65
2022/08/08 09:16:27;;;;;;;0.10;0.10;;;;;;;;;;5102333;28;20253;-65
2022/08/08 09:18:56;;;;;;;0.00;0.00;;;;;;;;;;5106959;28;20270;-66
2022/08/08 09:21:23;;;;;;;0.00;0.00;;;;;;;;;;5101898;28;20237;-66
2022/08/08 09:23:50;;;;;;;0.00;0.00;;;;;;;;;;5108833;28;20202;-66
2022/08/08 09:26:19;;;;;;;0.00;0.00;;;;;;;;;;5105090;28;20238;-65
2022/08/08 09:28:46;;;;;;;0.00;0.00;;;;;;;;;;5111921;28;20213;-65
2022/08/08 09:31:14;;;;;;;0.00;0.00;;;;;;;;;;5104492;28;20237;-64
2022/08/08 09:33:41;;;;;;;0.00;0.00;;;;;;;;;;5112776;28;20203;-65
2022/08/08 09:36:16;;;;;;;0.00;0.00;;;;;;;;;;5103172;28;20238;-65
2022/08/08 09:38:47;;;;;;;0.00;0.00;;;;;;;;;;5112291;28;20446;-65
2022/08/08 09:41:17;;;;;;;0.00;0.00;;;;;;;;;;5103973;28;20250;-64
2022/08/08 09:43:48;;;;;;;0.00;0.00;;;;;;;;;;5112072;28;20234;-64
2022/08/08 09:46:16;;;;;;;0.00;0.00;;;;;;;;;;5104393;28;20245;-65
2022/08/08 09:48:44;;;;;;;0.00;0.00;;;;;;;;;;5111648;28;20528;-65
2022/08/08 09:51:14;;;;;;;0.00;0.00;;;;;;;;;;5103723;28;20242;-64
2022/08/08 09:53:42;;;;;;;0.00;0.00;;;;;;;;;;5112353;28;20277;-64
2022/08/08 09:56:10;;;;;;;0.10;0.10;;;;;;;;;;5103306;28;20433;-66
2022/08/08 09:58:38;;;;;;;0.00;0.00;;;;;;;;;;5112588;28;20199;-65
2022/08/08 10:01:06;;;;;;;0.05;0.05;;;;;;;;;;5103020;28;20242;-66
2022/08/08 10:03:35;;;;;;;0.00;0.00;;;;;;;;;;5113251;28;20203;-68
2022/08/08 10:06:12;;;;;;;0.00;0.00;;;;;;;;;;5102233;28;20241;-67
2022/08/08 10:08:45;;;;;;;0.00;0.00;;;;;;;;;;5112287;28;20217;-67
2022/08/08 10:11:11;;;;;;;0.00;0.00;;;;;;;;;;5103477;28;20352;-67
2022/08/08 10:13:38;;;;;;;0.03;0.03;;;;;;;;;;5111942;28;20234;-65
2022/08/08 10:16:04;;;;;;;0.00;0.00;;;;;;;;;;5102666;28;20237;-66
2022/08/08 10:18:32;;;;;;;0.00;0.00;;;;;;;;;;5112844;28;20250;-66
2022/08/08 10:21:02;;;;;;;0.00;0.00;;;;;;;;;;5101585;28;20242;-66
2022/08/08 10:23:39;;;;;;;0.00;0.00;;;;;;;;;;5113163;28;20290;-67
2022/08/08 10:26:09;;;;;;;0.00;0.00;;;;;;;;;;5102402;28;20238;-66
2022/08/08 10:28:36;;;;;;;0.00;0.00;;;;;;;;;;5112019;28;20226;-67
2022/08/08 10:32:30;;;;;;;0.00;0.00;;;;;;;;;;5101909;28;20238;-66
2022/08/08 10:33:52;;;;;;;0.00;0.00;;;;;;;;;;5110158;28;20203;-66
2022/08/08 10:36:23;;;;;;;0.00;0.00;;;;;;;;;;5103685;28;20568;-66
2022/08/08 10:38:51;;;;;;;0.00;0.00;;;;;;;;;;5110143;28;20198;-65
2022/08/08 10:41:22;;;;;;;0.00;0.00;;;;;;;;;;5103500;28;20238;-66
2022/08/08 10:43:50;;;;;;;0.00;0.00;;;;;;;;;;5110363;28;20198;-65
2022/08/08 10:46:26;;;;;;;0.00;0.00;;;;;;;;;;5103611;28;20237;-66
2022/08/08 10:48:53;;;;;;;0.00;0.00;;;;;;;;;;5109562;28;20349;-66
2022/08/08 10:51:20;;;;;;;0.00;0.00;;;;;;;;;;5103895;28;20484;-66
2022/08/08 10:53:48;;;;;;;0.00;0.00;;;;;;;;;;5110359;28;20203;-65
2022/08/08 10:56:14;;;;;;;0.00;0.00;;;;;;;;;;5103013;28;20260;-64
2022/08/08 10:58:42;;;;;;;0.00;0.00;;;;;;;;;;5111085;28;20229;-65
2022/08/08 11:01:09;;;;;;;0.00;0.00;;;;;;;;;;5102403;28;20297;-65
2022/08/08 11:03:40;;;;;;;0.00;0.00;;;;;;;;;;5111737;28;20293;-66
2022/08/08 11:06:07;;;;;;;0.00;0.00;;;;;;;;;;5102404;28;20303;-69
2022/08/08 11:08:35;;;;;;;0.03;0.03;;;;;;;;;;5111702;28;20228;-68
2022/08/08 11:11:02;;;;;;;0.00;0.00;;;;;;;;;;5101199;28;20238;-68
2022/08/08 11:13:28;;;;;;;0.00;0.00;;;;;;;;;;5112617;28;20264;-68
2022/08/08 11:15:56;;;;;;;0.00;0.00;;;;;;;;;;5100250;28;20234;-68
2022/08/08 11:18:23;;;;;;;0.00;0.00;;;;;;;;;;5112809;28;20226;-68
2022/08/08 11:20:50;;;;;;;0.00;0.00;;;;;;;;;;5099458;28;20252;-68
2022/08/08 11:23:19;;;;;;;0.00;0.00;;;;;;;;;;5113925;28;20202;-69
2022/08/08 11:25:46;;;;;;;0.00;0.00;;;;;;;;;;5098947;28;20237;-68
2022/08/08 11:28:13;;;;;;;0.10;0.10;;;;;;;;;;5114226;28;20199;-68
2022/08/08 11:30:40;;;;;;;0.00;0.00;;;;;;;;;;5097671;28;20238;-68
2022/08/08 11:33:08;;;;;;;0.00;0.00;;;;;;;;;;5115153;28;20269;-71
2022/08/08 11:35:35;;;;;;;0.00;0.00;;;;;;;;;;5097155;28;20261;-68
2022/08/08 11:38:02;;;;;;;0.00;0.00;;;;;;;;;;5115318;28;20260;-68
2022/08/08 11:40:28;;;;;;;0.00;0.00;;;;;;;;;;5096598;28;20275;-69
2022/08/08 11:42:55;;;;;;;0.00;0.00;;;;;;;;;;5116360;28;20218;-68
2022/08/08 11:45:22;;;;;;;0.00;0.00;;;;;;;;;;5095782;28;20214;-69
2022/08/08 11:47:49;;;;;;;0.00;0.00;;;;;;;;;;5116135;28;20206;-69
2022/08/08 11:50:18;;;;;;;0.00;0.00;;;;;;;;;;5094809;28;20203;-68
2022/08/08 11:52:46;;;;;;;0.00;0.00;;;;;;;;;;5117295;28;20237;-68
2022/08/08 11:55:16;;;;;;;0.00;0.00;;;;;;;;;;5094151;28;20452;-68
2022/08/08 11:57:42;;;;;;;0.00;0.00;;;;;;;;;;5117716;28;20217;-68
2022/08/08 12:00:15;;;;;;;0.00;0.00;;;;;;;;;;5103801;28;20448;-69
2022/08/08 12:02:46;;;;;;;0.00;0.00;;;;;;;;;;5091826;28;20562;-69
2022/08/08 12:05:12;;;;;;;0.00;0.00;;;;;;;;;;5093990;28;20245;-68
2022/08/08 12:07:47;;;;;;;0.05;0.05;;;;;;;;;;5118140;28;20478;-69
2022/08/08 12:10:14;;;;;;;0.00;0.00;;;;;;;;;;5094049;28;20273;-69
2022/08/08 12:12:42;;;;;;;0.00;0.00;;;;;;;;;;5117559;28;20262;-67
2022/08/08 12:15:09;;;;;;;0.00;0.00;;;;;;;;;;5093172;28;20206;-69
2022/08/08 12:17:35;;;;;;;0.08;0.08;;;;;;;;;;5118208;28;20253;-68
2022/08/08 12:20:03;;;;;;;0.00;0.00;;;;;;;;;;5103181;28;20572;-69
2022/08/08 12:22:30;;;;;;;0.00;0.00;;;;;;;;;;5108426;28;20245;-69
2022/08/08 12:24:59;;;;;;;0.00;0.00;;;;;;;;;;5103165;28;20207;-69
2022/08/08 12:27:25;;;;;;;0.00;0.00;;;;;;;;;;5108458;28;20254;-68
2022/08/08 12:29:56;;;;;;;0.00;0.00;;;;;;;;;;5103244;28;20208;-70
2022/08/08 12:32:22;;;;;;;0.00;0.00;;;;;;;;;;5108231;28;20545;-69
2022/08/08 12:35:00;;;;;;;0.00;0.00;;;;;;;;;;5103221;28;20433;-68
2022/08/08 12:37:28;;;;;;;0.00;0.00;;;;;;;;;;5108387;28;20462;-69
2022/08/08 12:39:55;;;;;;;0.00;0.00;;;;;;;;;;5103489;28;20207;-68
2022/08/08 12:42:23;;;;;;;0.00;0.00;;;;;;;;;;5108523;28;20302;-68
2022/08/08 12:44:50;;;;;;;0.10;0.10;;;;;;;;;;5103325;28;20237;-68
2022/08/08 12:47:26;;;;;;;0.00;0.00;;;;;;;;;;5108128;28;20238;-68
2022/08/08 12:49:54;;;;;;;0.00;0.00;;;;;;;;;;5102707;28;20259;-69
2022/08/08 12:52:21;;;;;;;0.00;0.00;;;;;;;;;;5108002;28;20301;-70
2022/08/08 12:54:47;;;;;;;0.00;0.00;;;;;;;;;;5102909;28;20285;-68
2022/08/08 12:57:15;;;;;;;0.00;0.00;;;;;;;;;;5107944;28;20255;-69
2022/08/08 12:59:50;;;;;;;0.00;0.00;;;;;;;;;;5105279;28;20203;-69
2022/08/08 13:02:21;;;;;;;0.00;0.00;;;;;;;;;;5112212;28;20305;-69
2022/08/08 13:04:49;;;;;;;0.00;0.00;;;;;;;;;;5106587;28;20354;-68
2022/08/08 13:07:16;;;;;;;0.00;0.00;;;;;;;;;;5112063;28;20260;-69
2022/08/08 13:09:45;;;;;;;0.00;0.00;;;;;;;;;;5106805;28;20202;-68
2022/08/08 13:12:12;;;;;;;0.00;0.00;;;;;;;;;;5111959;28;20237;-69
2022/08/08 13:14:40;;;;;;;0.00;0.00;;;;;;;;;;5106813;28;20203;-68
2022/08/08 13:17:08;;;;;;;0.00;0.00;;;;;;;;;;5111858;28;20250;-68
2022/08/08 13:19:35;;;;;;;0.00;0.00;;;;;;;;;;5106435;28;20285;-68
2022/08/08 13:22:01;;;;;;;0.00;0.00;;;;;;;;;;5111334;27;20490;-68
2022/08/08 13:24:28;;;;;;;0.00;0.00;;;;;;;;;;5106842;28;20206;-68
2022/08/08 13:27:01;;;;;;;0.00;0.00;;;;;;;;;;5110221;28;20257;-68
2022/08/08 13:29:27;;;;;;;0.00;0.00;;;;;;;;;;5106843;28;20526;-69
2022/08/08 13:31:53;;;;;;;0.00;0.00;;;;;;;;;;5110119;28;20535;-69
2022/08/08 13:34:22;;;;;;;0.00;0.00;;;;;;;;;;5107752;28;20207;-68
2022/08/08 13:36:48;;;;;;;0.00;0.00;;;;;;;;;;5109144;28;20238;-69
2022/08/08 13:39:15;;;;;;;0.00;0.00;;;;;;;;;;5108133;28;20298;-69
2022/08/08 13:41:42;;;;;;;0.00;0.00;;;;;;;;;;5108237;28;20238;-70
2022/08/08 13:44:08;;;;;;;0.00;0.00;;;;;;;;;;5108804;28;20210;-69
2022/08/08 13:46:34;;;;;;;0.00;0.00;;;;;;;;;;5107259;28;20465;-69
2022/08/08 13:49:02;;;;;;;0.00;0.00;;;;;;;;;;5109996;28;20205;-68
2022/08/08 13:51:30;;;;;;;0.00;0.00;;;;;;;;;;5106354;28;20245;-67
2022/08/08 13:53:57;;;;;;;0.00;0.00;;;;;;;;;;5110445;28;20229;-69
2022/08/08 13:56:30;;;;;;;0.00;0.00;;;;;;;;;;5105624;28;20241;-69
2022/08/08 13:58:57;;;;;;;0.00;0.00;;;;;;;;;;5110032;28;20440;-69
2022/08/08 14:01:26;;;;;;;0.00;0.00;;;;;;;;;;5105358;28;20244;-68
2022/08/08 14:03:53;;;;;;;0.00;0.00;;;;;;;;;;5110826;28;20203;-70
2022/08/08 14:06:20;;;;;;;0.00;0.00;;;;;;;;;;5104863;28;20279;-68
2022/08/08 14:08:48;;;;;;;0.00;0.00;;;;;;;;;;5111068;28;20275;-68
2022/08/08 14:11:16;;;;;;;0.00;0.00;;;;;;;;;;5103834;28;20242;-68
2022/08/08 14:13:42;;;;;;;0.00;0.00;;;;;;;;;;5111865;28;20213;-69
2022/08/08 14:16:09;;;;;;;0.00;0.00;;;;;;;;;;5103360;28;20240;-69
2022/08/08 14:18:35;;;;;;;0.00;0.00;;;;;;;;;;5112817;28;20280;-67
2022/08/08 14:21:03;;;;;;;0.00;0.00;;;;;;;;;;5102088;28;20493;-68
2022/08/08 14:23:39;;;;;;;0.00;0.00;;;;;;;;;;5113672;28;20429;-68
2022/08/08 14:26:07;;;;;;;0.00;0.00;;;;;;;;;;5102673;28;20242;-68
2022/08/08 14:28:33;;;;;;;0.00;0.00;;;;;;;;;;5113041;28;20210;-68
2022/08/08 14:31:06;;;;;;;0.00;0.00;;;;;;;;;;5102112;28;20589;-68
2022/08/08 14:33:33;;;;;;;0.00;0.00;;;;;;;;;;5112627;28;20270;-69
2022/08/08 14:35:59;;;;;;;0.00;0.00;;;;;;;;;;5101617;28;20256;-68
2022/08/08 14:38:29;;;;;;;0.00;0.00;;;;;;;;;;5113438;28;20223;-68
2022/08/08 14:40:55;;;;;;;0.00;0.00;;;;;;;;;;5101273;28;20562;-68
2022/08/08 14:43:26;;;;;;;0.00;0.00;;;;;;;;;;5114155;28;20345;-68
2022/08/08 14:46:03;;;;;;;0.00;0.00;;;;;;;;;;5100942;28;20313;-68
2022/08/08 14:48:39;;;;;;;0.00;0.00;;;;;;;;;;5112713;28;20273;-69
2022/08/08 14:51:06;;;;;;;0.00;0.00;;;;;;;;;;5102253;28;20249;-68
2022/08/08 14:53:35;;;;;;;0.00;0.00;;;;;;;;;;5112303;28;20258;-69
2022/08/08 14:56:01;;;;;;;0.00;0.00;;;;;;;;;;5101706;28;20301;-67
2022/08/08 14:58:29;;;;;;;0.00;0.00;;;;;;;;;;5112596;28;20266;-69
2022/08/08 15:00:56;;;;;;;0.00;0.00;;;;;;;;;;5100856;28;20309;-68
2022/08/08 15:03:22;;;;;;;0.00;0.00;;;;;;;;;;5113387;28;20215;-69
2022/08/08 15:05:48;;;;;;;0.00;0.00;;;;;;;;;;5100042;28;20238;-69